Time;durP1;ratioP1;P1;durP2;ratioP2;P2;SDS_P1;SDS_P2;PMS_P1;PMS_P2;Temp;Humidity;BMP_temperature;BMP_pressure;BME280_temperature;BME280_humidity;BME280_pressure;Samples;Min_cycle;Max_cycle;Signal;HPM_P1;HPM_P2
2021/10/13 00:00:49;;;;;;;1.60;0.70;;;;;;;18.47;63.54;102454.88;4893239;29;20051;-82
2021/10/13 00:13:23;;;;;;;1.38;0.65;;;;;;;18.48;63.58;102455.72;4918939;29;20105;-85
2021/10/13 00:22:33;;;;;;;1.95;0.77;;;;;;;18.45;63.55;102448.75;4917397;29;20164;-82
2021/10/13 00:24:59;;;;;;;1.15;0.77;;;;;;;18.44;63.30;102449.63;4884300;29;20449;-83
2021/10/13 00:27:32;;;;;;;1.67;0.63;;;;;;;18.44;63.54;102443.50;4899159;29;20065;-83
2021/10/13 00:30:08;;;;;;;1.60;0.70;;;;;;;18.46;63.34;102447.00;4881941;29;20117;-83
2021/10/13 00:39:21;;;;;;;1.40;0.63;;;;;;;18.46;63.70;102447.00;4919275;29;20036;-82
2021/10/13 00:41:49;;;;;;;2.80;0.98;;;;;;;18.48;63.68;102447.91;4914070;29;20069;-83
2021/10/13 00:54:24;;;;;;;1.45;0.70;;;;;;;18.50;63.68;102452.28;4916326;29;20051;-82
2021/10/13 00:56:49;;;;;;;1.52;0.82;;;;;;;18.49;63.75;102449.69;4894036;29;20047;-83
2021/10/13 00:59:15;;;;;;;1.60;0.63;;;;;;;18.49;63.56;102454.91;4896047;29;20024;-82
2021/10/13 01:04:58;;;;;;;1.15;0.63;;;;;;;18.50;63.65;102461.84;4914183;29;20453;-82
2021/10/13 01:11:24;;;;;;;1.35;0.57;;;;;;;18.52;63.80;102457.53;4913687;29;20040;-82
2021/10/13 01:41:05;;;;;;;2.33;0.60;;;;;;;18.50;63.76;102456.63;4900276;29;20068;-83
2021/10/13 01:56:47;;;;;;;1.08;0.50;;;;;;;18.46;63.56;102466.13;4842600;29;20151;-84
2021/10/13 01:59:41;;;;;;;2.85;0.55;;;;;;;18.45;63.79;102474.81;4822555;29;20039;-83
2021/10/13 02:02:08;;;;;;;1.70;0.65;;;;;;;18.46;63.78;102475.69;4813694;29;20075;-85
2021/10/13 02:10:46;;;;;;;1.52;0.70;;;;;;;18.45;63.61;102497.41;4839447;29;20037;-83
2021/10/13 02:13:13;;;;;;;1.38;0.52;;;;;;;18.45;63.70;102492.19;4833715;29;20038;-81
2021/10/13 02:15:44;;;;;;;1.65;0.68;;;;;;;18.44;63.54;102491.34;4809001;29;20042;-81
2021/10/13 02:18:14;;;;;;;1.48;0.60;;;;;;;18.44;63.64;102493.94;4809018;29;20042;-81
2021/10/13 02:20:41;;;;;;;1.35;0.63;;;;;;;18.45;63.49;102487.84;4808108;29;20034;-82
2021/10/13 02:23:09;;;;;;;1.13;0.60;;;;;;;18.45;63.57;102489.59;4829122;29;20030;-81
2021/10/13 02:25:40;;;;;;;1.27;0.63;;;;;;;18.44;63.61;102486.13;4879597;29;20058;-81
2021/10/13 02:28:09;;;;;;;1.52;0.57;;;;;;;18.45;63.58;102481.78;4880014;29;20040;-81
2021/10/13 02:30:35;;;;;;;1.77;0.80;;;;;;;18.44;63.66;102480.00;4882482;29;20055;-81
2021/10/13 02:33:03;;;;;;;1.40;0.50;;;;;;;18.44;63.43;102480.91;4899302;29;20359;-81
2021/10/13 02:35:29;;;;;;;1.42;0.70;;;;;;;18.44;63.57;102480.00;4882068;29;20560;-81
2021/10/13 02:37:55;;;;;;;1.13;0.50;;;;;;;18.43;63.33;102479.13;4882719;29;20119;-82
2021/10/13 02:40:20;;;;;;;1.20;0.60;;;;;;;18.43;63.54;102480.88;4882077;29;20045;-81
2021/10/13 02:42:46;;;;;;;2.40;0.60;;;;;;;18.42;63.56;102466.97;4899782;29;20051;-81
2021/10/13 02:45:14;;;;;;;2.22;0.55;;;;;;;18.43;63.68;102473.06;4883213;29;20093;-81
2021/10/13 02:48:05;;;;;;;2.08;0.70;;;;;;;18.44;63.43;102474.78;4882694;29;20485;-81
2021/10/13 02:50:44;;;;;;;1.65;0.50;;;;;;;18.43;63.57;102483.47;4884309;29;20043;-82
2021/10/13 02:53:35;;;;;;;1.13;0.50;;;;;;;18.44;63.48;102486.13;4883266;29;20155;-81
2021/10/13 02:56:19;;;;;;;1.20;0.50;;;;;;;18.44;63.34;102493.94;4883292;29;20056;-82
2021/10/13 02:59:07;;;;;;;1.33;0.55;;;;;;;18.43;63.43;102504.34;4887793;29;20033;-81
2021/10/13 03:01:45;;;;;;;1.58;0.55;;;;;;;18.42;63.39;102500.88;4886872;29;20025;-81
2021/10/13 03:04:16;;;;;;;1.17;0.50;;;;;;;18.40;63.76;102499.97;4887056;29;20028;-81
2021/10/13 03:06:49;;;;;;;2.35;0.60;;;;;;;18.42;63.48;102502.56;4888265;29;20488;-82
2021/10/13 03:09:21;;;;;;;1.48;0.65;;;;;;;18.40;63.44;102494.75;4891209;29;20017;-82
2021/10/13 03:11:53;;;;;;;1.42;0.50;;;;;;;18.41;63.43;102504.31;4892350;29;20036;-82
2021/10/13 03:17:58;;;;;;;1.83;0.65;;;;;;;18.41;63.37;102495.63;4867209;29;20029;-81
2021/10/13 03:21:07;;;;;;;1.98;0.70;;;;;;;18.41;63.41;102500.84;4889089;29;20161;-81
2021/10/13 03:23:55;;;;;;;0.70;0.50;;;;;;;18.39;63.29;102498.19;4890262;29;20037;-81
2021/10/13 03:26:23;;;;;;;1.50;0.60;;;;;;;18.41;63.50;102508.66;4888033;29;20032;-81
2021/10/13 03:28:52;;;;;;;1.23;0.40;;;;;;;18.41;63.49;102493.00;4886873;29;20045;-81
2021/10/13 03:31:17;;;;;;;1.40;0.50;;;;;;;18.42;63.65;102492.16;4886989;29;20111;-81
2021/10/13 03:33:53;;;;;;;1.27;0.50;;;;;;;18.43;63.48;102501.72;4898604;29;20036;-81
2021/10/13 03:36:19;;;;;;;2.60;0.60;;;;;;;18.44;63.57;102506.97;4899914;29;20029;-82
2021/10/13 03:38:45;;;;;;;1.17;0.50;;;;;;;18.43;63.87;102501.72;4892556;29;20031;-82
2021/10/13 03:41:12;;;;;;;2.60;0.63;;;;;;;18.45;63.55;102513.06;4870769;29;20467;-81
2021/10/13 03:43:49;;;;;;;1.25;0.50;;;;;;;18.45;63.65;102506.09;4886112;29;20038;-81
2021/10/13 03:46:19;;;;;;;1.90;0.65;;;;;;;18.46;63.57;102504.38;4885586;29;20116;-81
2021/10/13 03:48:49;;;;;;;1.40;0.65;;;;;;;18.46;63.64;102497.41;4885601;29;20024;-81
2021/10/13 03:51:20;;;;;;;2.20;0.70;;;;;;;18.46;63.45;102502.63;4890347;29;20035;-82
2021/10/13 03:53:47;;;;;;;1.00;0.50;;;;;;;18.47;63.62;102493.09;4891787;29;20025;-82
2021/10/13 03:56:15;;;;;;;0.90;0.50;;;;;;;18.47;63.71;102495.72;4891961;29;20108;-83
2021/10/13 03:58:46;;;;;;;1.15;0.40;;;;;;;18.48;63.70;102503.53;4889595;29;20035;-81
2021/10/13 04:01:14;;;;;;;1.02;0.60;;;;;;;18.47;63.67;102507.00;4888017;29;20092;-82
2021/10/13 04:03:48;;;;;;;1.30;0.47;;;;;;;18.48;63.68;102511.34;4903440;29;20039;-81
2021/10/13 04:06:16;;;;;;;0.82;0.40;;;;;;;18.49;63.61;102512.25;4885442;29;20144;-81
2021/10/13 04:08:47;;;;;;;1.88;0.75;;;;;;;18.49;63.76;102509.63;4869132;29;20029;-81
2021/10/13 04:11:13;;;;;;;1.65;0.50;;;;;;;18.49;63.59;102507.03;4885257;29;20024;-81
2021/10/13 04:13:44;;;;;;;0.80;0.45;;;;;;;18.48;63.71;102508.75;4885408;29;20088;-81
2021/10/13 04:16:15;;;;;;;1.00;0.50;;;;;;;18.48;63.68;102500.06;4884487;29;20039;-81
2021/10/13 04:19:03;;;;;;;1.40;0.50;;;;;;;18.49;63.67;102513.13;4884450;29;20549;-81
2021/10/13 04:22:03;;;;;;;0.75;0.40;;;;;;;18.49;63.76;102512.25;4874443;29;20048;-81
2021/10/13 04:24:58;;;;;;;;;;;;;;;;;;;;;
2021/10/13 04:31:04;;;;;;;1.65;0.57;;;;;;;18.47;63.56;102511.34;4884097;29;20076;-81
2021/10/13 04:33:56;;;;;;;1.92;0.43;;;;;;;18.48;63.60;102518.28;4884530;29;20449;-81
2021/10/13 04:36:23;;;;;;;1.08;0.50;;;;;;;18.47;63.55;102513.94;4900622;29;20493;-81
2021/10/13 04:38:57;;;;;;;0.60;0.20;;;;;;;18.47;63.55;102509.59;4901175;29;20032;-81
2021/10/13 04:41:36;;;;;;;;;;;;;;;;;;;;;
2021/10/13 04:44:12;;;;;;;1.77;0.47;;;;;;;18.45;63.49;102505.25;4901396;29;20034;-81
2021/10/13 04:46:48;;;;;;;1.17;0.60;;;;;;;18.47;63.51;102508.75;4884951;29;20028;-82
2021/10/13 04:49:13;;;;;;;1.38;0.50;;;;;;;18.44;63.79;102503.47;4908824;29;20028;-81
2021/10/13 04:51:39;;;;;;;1.60;0.50;;;;;;;18.44;63.54;102501.75;4908660;29;20035;-82
2021/10/13 04:54:04;;;;;;;1.45;0.47;;;;;;;18.45;63.62;102513.94;4893210;29;20028;-81
2021/10/13 04:56:30;;;;;;;3.13;0.50;;;;;;;18.46;63.61;102509.56;4892138;29;20478;-82
2021/10/13 04:58:55;;;;;;;1.15;0.43;;;;;;;18.44;63.62;102506.06;4892383;29;20029;-82
2021/10/13 05:01:21;;;;;;;1.10;0.55;;;;;;;18.44;63.82;102511.28;4892804;29;20397;-82
2021/10/13 05:03:46;;;;;;;1.20;0.60;;;;;;;18.43;63.33;102509.56;4894300;29;20056;-82
2021/10/13 05:09:36;;;;;;;2.75;0.70;;;;;;;18.43;63.57;102507.81;4914020;29;20048;-82
2021/10/13 05:12:01;;;;;;;1.33;0.57;;;;;;;18.44;63.43;102521.72;4890216;29;20061;-83
2021/10/13 05:14:27;;;;;;;0.95;0.50;;;;;;;18.44;63.63;102525.22;4878196;29;20036;-82
2021/10/13 05:16:52;;;;;;;1.38;0.52;;;;;;;18.43;63.32;102526.06;4877709;29;20036;-81
2021/10/13 05:19:17;;;;;;;1.73;0.40;;;;;;;18.43;63.41;102526.06;4891965;29;20031;-83
2021/10/13 05:21:43;;;;;;;1.60;0.50;;;;;;;18.44;63.32;102534.75;4892028;29;20044;-82
2021/10/13 05:24:09;;;;;;;2.78;0.50;;;;;;;18.43;63.57;102538.22;4893327;29;20112;-83
2021/10/13 05:26:35;;;;;;;1.52;0.63;;;;;;;18.42;63.36;102536.44;4896800;29;20031;-85
2021/10/13 05:29:01;;;;;;;1.13;0.68;;;;;;;18.42;63.29;102542.56;4883894;29;20052;-83
2021/10/13 05:31:26;;;;;;;1.25;0.52;;;;;;;18.39;63.50;102534.69;4917224;29;20080;-81
2021/10/13 05:39:53;;;;;;;2.63;0.70;;;;;;;18.37;63.46;102535.53;5080984;23;20044;-87
2021/10/13 06:01:05;;;;;;;5.03;1.80;;;;;;;18.50;62.45;102556.56;5692295;23;20063;-84
2021/10/13 06:07:36;;;;;;;9.80;1.98;;;;;;;18.53;62.58;102570.50;4940427;29;20064;-84
2021/10/13 06:16:36;;;;;;;5.97;1.95;;;;;;;18.55;62.60;102572.25;5096843;23;20044;-91
2021/10/13 06:19:02;;;;;;;4.93;1.70;;;;;;;18.55;62.57;102574.00;4914242;29;20179;-83
2021/10/13 06:21:40;;;;;;;5.68;1.80;;;;;;;18.56;62.65;102578.38;4928707;29;20032;-86
2021/10/13 06:24:06;;;;;;;5.55;1.80;;;;;;;18.56;62.64;102573.16;4901525;29;20044;-85
2021/10/13 06:29:54;;;;;;;4.80;1.83;;;;;;;18.57;62.80;102577.50;4933609;29;20068;-82
2021/10/13 06:32:20;;;;;;;4.68;1.52;;;;;;;18.58;62.72;102587.09;4875062;29;20032;-81
2021/10/13 06:34:45;;;;;;;4.47;1.52;;;;;;;18.59;62.62;102589.72;4919492;29;20032;-82
2021/10/13 06:37:10;;;;;;;5.10;1.58;;;;;;;18.61;62.85;102582.78;4899493;29;20032;-85
2021/10/13 06:39:37;;;;;;;5.88;1.60;;;;;;;18.63;62.53;102585.44;4899716;29;20043;-89
2021/10/13 06:44:48;;;;;;;12.88;2.60;;;;;;;18.66;62.38;102596.78;4918657;29;20146;-87
2021/10/13 06:47:13;;;;;;;10.88;3.47;;;;;;;18.66;62.58;102594.19;4919277;29;20040;-87
2021/10/13 06:49:40;;;;;;;9.45;3.10;;;;;;;18.64;62.52;102602.81;4917860;29;20067;-86
2021/10/13 06:52:06;;;;;;;8.70;3.17;;;;;;;18.62;62.51;102608.03;4918044;29;20032;-84
2021/10/13 06:54:31;;;;;;;9.32;3.55;;;;;;;18.60;62.52;102601.03;4920059;29;20070;-88
2021/10/13 06:56:57;;;;;;;7.25;2.50;;;;;;;18.60;62.36;102603.66;4916871;29;20039;-86
2021/10/13 06:59:22;;;;;;;7.57;2.67;;;;;;;18.59;62.46;102600.13;4900152;29;20485;-87
2021/10/13 07:01:48;;;;;;;6.65;2.58;;;;;;;18.60;62.43;102612.34;4900976;29;20037;-88
2021/10/13 07:14:20;;;;;;;4.65;2.10;;;;;;;18.60;62.47;102624.50;4926736;29;20112;-88
2021/10/13 07:20:36;;;;;;;7.55;2.20;;;;;;;18.58;62.61;102634.91;4913666;29;20051;-87
2021/10/13 07:23:01;;;;;;;11.20;2.92;;;;;;;18.60;62.36;102634.94;4896674;29;20032;-87
2021/10/13 07:38:45;;;;;;;5.47;1.90;;;;;;;18.60;62.42;102612.34;4955004;29;20042;-90
2021/10/13 07:44:13;;;;;;;5.25;2.05;;;;;;;18.68;62.28;102615.03;5001029;23;20051;-85
2021/10/13 07:46:39;;;;;;;6.10;2.03;;;;;;;18.71;62.22;102615.97;4916058;29;20067;-88
2021/10/13 07:49:04;;;;;;;5.38;2.13;;;;;;;18.73;62.03;102610.78;4888369;29;20099;-88
2021/10/13 07:51:30;;;;;;;5.60;2.15;;;;;;;18.76;61.97;102607.34;4902567;29;20028;-89
2021/10/13 07:53:55;;;;;;;5.10;2.08;;;;;;;18.82;61.71;102617.88;4914002;29;20024;-88
2021/10/13 07:56:21;;;;;;;6.50;1.80;;;;;;;18.94;61.33;102620.63;4909635;29;20501;-89
2021/10/13 07:58:46;;;;;;;8.73;1.92;;;;;;;19.12;60.87;102620.03;4893814;29;20036;-90
2021/10/13 08:01:12;;;;;;;4.50;2.10;;;;;;;19.18;60.39;102614.84;4889960;29;20043;-91
2021/10/13 08:03:39;;;;;;;5.72;1.98;;;;;;;18.99;61.34;102629.44;4874923;29;20056;-88
2021/10/13 08:06:06;;;;;;;4.07;1.77;;;;;;;18.90;61.82;102638.00;4896267;29;20043;-87
2021/10/13 08:08:31;;;;;;;5.28;1.83;;;;;;;18.87;61.65;102645.78;4896730;29;20029;-87
2021/10/13 08:10:57;;;;;;;3.88;1.90;;;;;;;18.82;61.84;102639.63;4892520;29;20047;-88
2021/10/13 08:13:23;;;;;;;4.63;1.80;;;;;;;18.78;61.79;102650.88;4894590;29;20028;-88
2021/10/13 08:15:48;;;;;;;6.95;1.95;;;;;;;18.76;62.11;102649.94;4895144;29;20028;-89
2021/10/13 08:18:13;;;;;;;5.90;1.80;;;;;;;18.76;62.06;102654.28;4915282;29;20028;-87
2021/10/13 08:20:39;;;;;;;4.63;1.70;;;;;;;18.78;61.95;102655.22;4893986;29;20032;-88
2021/10/13 08:23:04;;;;;;;3.80;1.63;;;;;;;18.81;61.78;102657.84;4891042;29;20032;-89
2021/10/13 08:25:30;;;;;;;4.55;1.67;;;;;;;18.81;61.77;102655.25;4894877;29;20032;-90
2021/10/13 08:27:56;;;;;;;3.95;1.60;;;;;;;18.81;61.65;102655.25;4896117;29;20115;-90
2021/10/13 08:30:21;;;;;;;3.40;1.70;;;;;;;18.81;61.85;102661.31;4916478;29;20024;-89
2021/10/13 08:32:46;;;;;;;4.05;1.70;;;;;;;18.84;61.67;102657.91;4914913;29;20036;-89
2021/10/13 08:35:12;;;;;;;3.83;1.70;;;;;;;18.88;61.69;102659.72;4896182;29;20095;-91
2021/10/13 08:37:38;;;;;;;4.55;1.88;;;;;;;18.94;61.42;102662.38;4877874;29;20036;-87
2021/10/13 08:40:05;;;;;;;4.75;1.60;;;;;;;19.01;61.32;102666.84;4893477;29;20408;-91
2021/10/13 08:42:31;;;;;;;4.70;1.65;;;;;;;19.03;61.27;102667.75;4898936;29;20034;-90
2021/10/13 08:44:57;;;;;;;3.22;1.67;;;;;;;19.04;61.26;102669.50;4871134;29;20067;-90
2021/10/13 08:47:22;;;;;;;2.35;1.25;;;;;;;18.99;61.27;102655.50;4885298;29;20434;-87
2021/10/13 08:49:48;;;;;;;3.42;1.40;;;;;;;18.94;61.57;102661.50;4886058;29;20025;-88
2021/10/13 08:52:17;;;;;;;4.30;1.52;;;;;;;18.92;61.70;102664.09;4891195;29;20028;-89
2021/10/13 08:54:42;;;;;;;4.57;1.63;;;;;;;18.95;61.52;102666.75;4898519;29;20473;-87
2021/10/13 08:57:22;;;;;;;3.47;1.50;;;;;;;18.99;61.36;102659.84;4874517;29;20060;-87
2021/10/13 08:59:49;;;;;;;2.88;1.27;;;;;;;19.00;61.35;102662.47;4885443;29;20363;-87
2021/10/13 09:02:16;;;;;;;3.50;1.65;;;;;;;19.00;61.42;102652.03;4902744;29;20107;-89
2021/10/13 09:05:22;;;;;;;3.40;1.25;;;;;;;19.00;61.34;102651.16;4874374;29;20037;-89
2021/10/13 09:07:58;;;;;;;4.68;1.55;;;;;;;19.00;61.42;102648.56;4888759;29;20039;-87
2021/10/13 09:10:29;;;;;;;3.58;1.20;;;;;;;19.01;61.28;102655.50;4886837;29;20020;-87
2021/10/13 09:12:55;;;;;;;4.97;1.75;;;;;;;19.04;61.19;102655.56;4883558;29;20032;-87
2021/10/13 09:15:25;;;;;;;2.50;1.30;;;;;;;19.05;61.18;102649.47;4883667;29;20088;-87
2021/10/13 09:17:53;;;;;;;3.05;1.50;;;;;;;19.02;61.05;102649.47;4883662;29;20382;-87
2021/10/13 09:20:19;;;;;;;3.63;1.38;;;;;;;19.04;61.35;102660.78;4883181;29;20028;-88
2021/10/13 09:22:58;;;;;;;3.28;1.40;;;;;;;19.02;61.14;102659.91;4868575;29;20040;-84
2021/10/13 09:25:24;;;;;;;3.72;1.50;;;;;;;18.97;61.34;102654.63;4894855;29;20032;-91
2021/10/13 09:27:50;;;;;;;3.35;1.40;;;;;;;18.95;61.56;102668.50;4899171;29;20039;-88
2021/10/13 09:30:24;;;;;;;2.50;1.02;;;;;;;18.90;61.89;102671.00;4898512;29;20088;-86
2021/10/13 09:32:49;;;;;;;6.55;1.35;;;;;;;18.86;61.51;102667.50;4897002;29;20024;-86
2021/10/13 09:35:14;;;;;;;4.00;1.30;;;;;;;18.83;61.65;102670.06;4860486;29;20073;-84
2021/10/13 09:41:40;;;;;;;3.15;1.45;;;;;;;18.83;61.74;102682.22;4910533;29;20051;-90
2021/10/13 09:44:14;;;;;;;2.85;1.40;;;;;;;18.83;61.77;102684.84;4887973;29;20056;-88
2021/10/13 09:46:40;;;;;;;2.88;1.35;;;;;;;18.84;61.86;102682.25;4876212;29;20032;-85
2021/10/13 09:49:05;;;;;;;3.60;1.25;;;;;;;18.87;61.78;102686.63;4872699;29;20051;-88
2021/10/13 09:51:36;;;;;;;2.95;1.38;;;;;;;18.85;61.52;102683.13;4858839;29;20028;-88
2021/10/13 09:54:07;;;;;;;3.70;1.40;;;;;;;18.86;61.67;102688.38;4889423;29;20025;-85
2021/10/13 09:56:37;;;;;;;4.45;1.40;;;;;;;18.87;61.42;102691.84;4886301;29;20025;-84
2021/10/13 09:59:27;;;;;;;2.28;1.30;;;;;;;18.85;61.75;102685.75;4887404;29;20459;-85
2021/10/13 10:01:58;;;;;;;4.18;1.30;;;;;;;18.82;61.58;102689.19;4903002;29;20036;-87
2021/10/13 10:04:28;;;;;;;3.45;1.20;;;;;;;18.83;61.65;102688.31;4871442;29;20051;-86
2021/10/13 10:06:59;;;;;;;3.30;1.27;;;;;;;18.85;61.58;102685.75;4870278;29;20032;-85
2021/10/13 10:09:27;;;;;;;3.90;1.35;;;;;;;18.87;61.51;102690.13;4885432;29;20020;-86
2021/10/13 10:18:39;;;;;;;5.38;1.20;;;;;;;18.86;61.55;102690.13;4908102;29;20524;-87
2021/10/13 10:21:28;;;;;;;3.13;1.20;;;;;;;18.86;61.56;102692.72;4887116;29;20036;-88
2021/10/13 10:23:54;;;;;;;3.55;1.20;;;;;;;18.86;61.55;102695.34;4888707;29;20063;-87
2021/10/13 10:33:04;;;;;;;2.95;1.30;;;;;;;18.82;61.61;102699.63;4910433;29;20048;-87
2021/10/13 10:35:39;;;;;;;3.42;1.30;;;;;;;18.83;61.65;102703.09;4893744;29;20036;-86
2021/10/13 10:38:05;;;;;;;2.83;1.08;;;;;;;18.85;61.40;102702.25;4874277;29;20497;-84
2021/10/13 10:40:34;;;;;;;3.72;1.10;;;;;;;18.88;61.43;102706.66;4887291;29;20021;-87
2021/10/13 10:43:33;;;;;;;2.35;0.90;;;;;;;18.88;61.50;102706.66;4884637;29;20076;-85
2021/10/13 10:45:59;;;;;;;5.60;1.02;;;;;;;18.91;61.39;102704.09;4903240;29;20032;-82
2021/10/13 10:48:26;;;;;;;4.95;1.17;;;;;;;18.90;61.25;102700.63;4901730;29;20033;-83
2021/10/13 10:50:51;;;;;;;2.45;1.10;;;;;;;18.97;61.47;102708.53;4866690;29;20032;-84
2021/10/13 10:53:32;;;;;;;3.38;1.30;;;;;;;19.00;61.29;102711.19;4881796;29;20032;-86
2021/10/13 10:56:18;;;;;;;4.53;1.30;;;;;;;19.02;61.37;102709.47;4881847;29;20032;-85
2021/10/13 10:59:11;;;;;;;2.75;1.10;;;;;;;19.04;61.25;102716.44;4882144;29;20029;-86
2021/10/13 11:01:38;;;;;;;2.95;1.20;;;;;;;19.03;61.15;102704.28;4879291;29;20076;-85
2021/10/13 11:04:08;;;;;;;2.70;1.00;;;;;;;19.00;61.21;102705.97;4881918;29;20028;-86
2021/10/13 11:06:36;;;;;;;2.90;1.13;;;;;;;18.99;61.44;102705.09;4881703;29;20050;-85
2021/10/13 11:09:10;;;;;;;2.85;1.05;;;;;;;18.99;61.28;102704.19;4866341;29;20029;-85
2021/10/13 11:11:41;;;;;;;2.20;1.10;;;;;;;19.02;61.37;102704.25;4881836;29;20401;-86
2021/10/13 11:14:10;;;;;;;2.75;1.10;;;;;;;19.04;61.23;102705.16;4866224;29;20509;-86
2021/10/13 11:16:38;;;;;;;2.15;0.90;;;;;;;19.03;61.09;102706.00;4881565;29;20033;-85
2021/10/13 11:19:19;;;;;;;2.25;1.00;;;;;;;19.02;61.26;102712.94;4884268;29;20020;-86
2021/10/13 11:21:46;;;;;;;2.85;0.90;;;;;;;19.07;60.97;102710.41;4885635;29;20382;-86
2021/10/13 11:24:15;;;;;;;1.70;0.70;;;;;;;19.08;60.75;102709.56;4872468;29;20031;-85
2021/10/13 11:26:43;;;;;;;3.15;1.10;;;;;;;19.10;60.89;102715.69;4876233;29;20028;-85
2021/10/13 11:29:38;;;;;;;1.98;0.70;;;;;;;19.05;60.98;102718.22;4875827;29;20397;-85
2021/10/13 11:32:12;;;;;;;2.65;0.85;;;;;;;19.00;61.08;102724.22;4874325;29;20396;-86
2021/10/13 11:34:39;;;;;;;2.25;1.20;;;;;;;18.98;61.29;102716.38;4871073;29;20029;-87
2021/10/13 11:37:05;;;;;;;1.70;0.90;;;;;;;18.98;61.28;102718.09;4874484;29;20119;-84
2021/10/13 11:39:34;;;;;;;1.98;1.13;;;;;;;18.96;61.17;102714.59;4874736;29;20111;-85
2021/10/13 11:42:00;;;;;;;2.17;0.90;;;;;;;18.96;61.23;102723.28;4889414;29;20532;-84
2021/10/13 11:44:28;;;;;;;2.35;1.10;;;;;;;18.94;61.00;102725.00;4889166;29;20052;-84
2021/10/13 11:47:05;;;;;;;2.63;1.05;;;;;;;18.95;61.29;102731.13;4871296;29;20041;-86
2021/10/13 11:49:31;;;;;;;2.67;0.95;;;;;;;18.99;61.14;102725.06;4886139;29;20021;-86
2021/10/13 11:52:12;;;;;;;2.63;1.00;;;;;;;18.99;61.03;102725.97;4902034;29;20107;-86
2021/10/13 11:54:38;;;;;;;2.47;0.93;;;;;;;19.00;60.77;102721.59;4901976;29;20516;-85
2021/10/13 11:57:04;;;;;;;2.85;1.10;;;;;;;19.01;61.02;102718.13;4869485;29;20037;-85
2021/10/13 11:59:30;;;;;;;1.75;1.00;;;;;;;19.00;60.89;102708.56;4884771;29;20029;-85
2021/10/13 12:02:09;;;;;;;1.30;0.70;;;;;;;18.98;60.83;102708.53;4885183;29;20044;-88
2021/10/13 12:04:34;;;;;;;2.40;1.05;;;;;;;19.00;60.86;102712.03;4905151;29;20435;-86
2021/10/13 12:06:59;;;;;;;2.08;0.80;;;;;;;19.00;60.97;102705.97;4856114;29;20039;-85
2021/10/13 12:09:25;;;;;;;2.22;0.98;;;;;;;19.00;60.87;102701.59;4855243;29;20024;-86
2021/10/13 12:11:50;;;;;;;1.45;0.77;;;;;;;19.02;60.75;102719.91;4884499;29;20032;-85
2021/10/13 12:14:16;;;;;;;2.60;0.93;;;;;;;19.01;60.91;102715.53;4885351;29;20500;-85
2021/10/13 12:16:41;;;;;;;1.85;0.82;;;;;;;19.02;60.90;102712.94;4869116;29;20505;-86
2021/10/13 12:19:15;;;;;;;2.20;0.90;;;;;;;19.02;60.94;102706.84;4885288;29;20037;-85
2021/10/13 12:22:01;;;;;;;3.13;1.27;;;;;;;19.05;60.99;102707.78;4886996;29;20508;-86
2021/10/13 12:24:26;;;;;;;2.65;1.10;;;;;;;19.07;61.12;102697.34;4901520;29;20038;-86
2021/10/13 12:26:52;;;;;;;2.78;1.23;;;;;;;19.11;60.80;102701.75;4868951;29;20170;-86
2021/10/13 12:29:18;;;;;;;1.88;1.27;;;;;;;19.12;60.76;102693.09;4868722;29;20039;-88
2021/10/13 12:31:44;;;;;;;3.15;1.33;;;;;;;19.15;60.79;102687.91;4868389;29;20458;-88
2021/10/13 12:34:15;;;;;;;1.67;1.00;;;;;;;19.17;60.67;102694.03;4883739;29;20029;-86
2021/10/13 12:36:57;;;;;;;2.33;1.25;;;;;;;19.20;60.57;102704.47;4883824;29;20033;-87
2021/10/13 12:39:25;;;;;;;2.55;1.15;;;;;;;19.18;60.39;102710.53;4883866;29;20035;-87
2021/10/13 12:41:51;;;;;;;2.45;1.10;;;;;;;19.16;60.58;102700.06;4883733;29;20036;-87
2021/10/13 12:44:19;;;;;;;1.98;1.20;;;;;;;19.18;60.68;102702.72;4883678;29;20057;-86
2021/10/13 12:46:58;;;;;;;3.38;1.20;;;;;;;19.16;60.60;102702.69;4884506;29;20029;-87
2021/10/13 12:49:26;;;;;;;1.95;1.02;;;;;;;19.17;60.57;102709.69;4885277;29;20350;-87
2021/10/13 12:52:00;;;;;;;2.85;1.20;;;;;;;19.16;60.40;102707.91;4886334;29;20027;-86
2021/10/13 12:54:30;;;;;;;1.58;1.10;;;;;;;19.17;60.41;102698.38;4886392;29;20048;-88
2021/10/13 12:56:57;;;;;;;2.28;1.10;;;;;;;19.17;60.33;102698.38;4871480;29;20033;-87
2021/10/13 12:59:24;;;;;;;2.22;1.00;;;;;;;19.14;60.62;102707.03;4869208;29;20032;-87
2021/10/13 13:01:51;;;;;;;1.88;1.15;;;;;;;19.14;60.64;102706.13;4883733;29;20050;-83
2021/10/13 13:04:17;;;;;;;3.20;1.20;;;;;;;19.12;60.61;102703.53;4883233;29;20036;-85
2021/10/13 13:06:42;;;;;;;2.50;1.20;;;;;;;19.13;60.63;102712.22;4900213;29;20036;-88
2021/10/13 13:09:08;;;;;;;5.65;1.10;;;;;;;19.14;60.63;102706.13;4883965;29;20389;-89
2021/10/13 13:11:34;;;;;;;2.47;1.10;;;;;;;19.13;60.37;102704.41;4883327;29;20075;-86
2021/10/13 13:14:00;;;;;;;2.67;1.10;;;;;;;19.13;60.63;102702.66;4867607;29;20043;-86
2021/10/13 13:16:26;;;;;;;3.88;1.10;;;;;;;19.13;60.33;102699.19;4882996;29;20516;-88
2021/10/13 13:18:55;;;;;;;2.22;1.10;;;;;;;19.13;60.46;102707.88;4883388;29;20120;-87
2021/10/13 13:21:22;;;;;;;2.90;1.00;;;;;;;19.13;60.65;102705.28;4883149;29;20029;-86
2021/10/13 13:23:51;;;;;;;2.75;1.30;;;;;;;19.13;60.60;102707.88;4867988;29;20032;-87
2021/10/13 13:26:18;;;;;;;3.33;1.23;;;;;;;19.14;60.51;102698.31;4868439;29;20028;-86
2021/10/13 13:28:44;;;;;;;2.83;0.98;;;;;;;19.14;60.31;102698.31;4883300;29;20039;-87
2021/10/13 13:31:09;;;;;;;2.78;1.13;;;;;;;19.14;60.46;102693.09;4867499;29;20111;-86
2021/10/13 13:33:35;;;;;;;3.40;1.17;;;;;;;19.13;60.73;102696.56;4882755;29;20059;-85
2021/10/13 13:36:01;;;;;;;2.35;1.10;;;;;;;19.13;60.75;102697.44;4867851;29;20119;-83
2021/10/13 13:38:26;;;;;;;1.90;0.88;;;;;;;19.10;60.51;102695.66;4899993;29;20037;-87
2021/10/13 13:40:52;;;;;;;2.15;0.90;;;;;;;19.11;60.77;102701.75;4882616;29;20048;-85
2021/10/13 13:43:17;;;;;;;2.28;1.00;;;;;;;19.08;60.72;102694.78;4867171;29;20402;-86
2021/10/13 13:45:45;;;;;;;2.53;0.98;;;;;;;19.09;60.49;102698.25;4867466;29;20039;-85
2021/10/13 13:48:10;;;;;;;2.15;1.02;;;;;;;19.07;60.38;102698.22;4882839;29;20397;-85
2021/10/13 13:50:36;;;;;;;1.90;0.90;;;;;;;19.07;60.59;102703.44;4882853;29;20025;-84
2021/10/13 13:53:01;;;;;;;2.58;1.00;;;;;;;19.07;60.66;102713.88;4873107;29;20104;-88
2021/10/13 13:55:27;;;;;;;2.88;0.90;;;;;;;19.08;60.93;102706.94;4873332;29;20036;-86
2021/10/13 13:57:53;;;;;;;1.70;0.90;;;;;;;19.07;60.73;102707.78;4884356;29;20096;-86
2021/10/13 14:00:19;;;;;;;1.40;0.75;;;;;;;19.07;60.62;102711.25;4853468;29;20046;-86
2021/10/13 14:02:44;;;;;;;2.67;1.10;;;;;;;19.07;60.60;102710.41;4884193;29;20154;-86
2021/10/13 14:05:10;;;;;;;1.95;1.00;;;;;;;19.07;60.60;102707.78;4883122;29;20029;-86
2021/10/13 14:07:36;;;;;;;2.83;1.10;;;;;;;19.06;60.50;102714.75;4868159;29;20025;-88
2021/10/13 14:10:04;;;;;;;2.42;1.27;;;;;;;19.04;60.48;102708.63;4899334;29;20063;-87
2021/10/13 14:12:30;;;;;;;3.10;1.20;;;;;;;19.04;60.63;102706.00;4889508;29;20024;-88
2021/10/13 14:14:55;;;;;;;2.35;1.17;;;;;;;19.05;60.46;102714.72;4873337;29;20402;-89
2021/10/13 14:17:20;;;;;;;3.05;0.90;;;;;;;19.07;60.72;102719.09;4868529;29;20032;-83
2021/10/13 14:19:46;;;;;;;4.75;1.15;;;;;;;19.05;60.67;102713.00;4867530;29;20036;-85
2021/10/13 14:22:12;;;;;;;1.35;0.82;;;;;;;19.06;60.63;102712.13;4868630;29;20041;-85
2021/10/13 14:24:38;;;;;;;2.40;0.90;;;;;;;19.06;60.51;102709.53;4883452;29;20048;-87
2021/10/13 14:27:04;;;;;;;2.97;0.80;;;;;;;19.06;60.68;102709.53;4883955;29;20036;-87
2021/10/13 14:29:30;;;;;;;3.00;0.88;;;;;;;19.06;60.65;102706.91;4869981;29;20031;-87
2021/10/13 14:31:56;;;;;;;2.15;1.05;;;;;;;19.05;60.51;102709.50;4869080;29;20040;-86
2021/10/13 14:34:22;;;;;;;1.98;1.00;;;;;;;19.05;60.41;102704.28;4883149;29;20035;-87
2021/10/13 14:36:48;;;;;;;1.88;1.00;;;;;;;19.05;60.41;102707.78;4882853;29;20393;-88
2021/10/13 14:39:14;;;;;;;5.13;0.80;;;;;;;19.06;60.38;102708.66;4883150;29;20043;-86
2021/10/13 14:41:40;;;;;;;1.38;0.80;;;;;;;19.03;60.47;102706.88;4882892;29;20546;-86
2021/10/13 14:44:06;;;;;;;3.35;0.98;;;;;;;19.04;60.56;102716.44;4867620;29;20056;-86